createdAt,value
2022-10-28T00:01:05.662Z,16.30
2022-10-28T00:04:47.498Z,16.30
2022-10-28T00:08:33.175Z,16.20
2022-10-28T00:12:14.867Z,16.20
2022-10-28T00:16:03.096Z,16.20
2022-10-28T00:19:45.155Z,16.20
2022-10-28T00:23:26.918Z,16.20
2022-10-28T00:27:08.718Z,16.20
2022-10-28T00:30:50.952Z,16.20
2022-10-28T00:34:32.657Z,16.20
2022-10-28T00:38:14.636Z,16.20
2022-10-28T00:41:59.517Z,16.20
2022-10-28T00:45:41.599Z,16.10
2022-10-28T00:49:32.095Z,16.10
2022-10-28T00:53:24.599Z,16.10
2022-10-28T00:57:13.224Z,16.10
2022-10-28T01:00:55.668Z,16.00
2022-10-28T01:04:37.684Z,16.00
2022-10-28T01:08:20.094Z,16.00
2022-10-28T01:12:31.139Z,16.00
2022-10-28T01:16:36.101Z,16.00
2022-10-28T01:20:39.776Z,16.00
2022-10-28T01:24:47.185Z,16.00
2022-10-28T01:28:59.478Z,16.00
2022-10-28T01:33:04.763Z,16.00
2022-10-28T01:37:22.125Z,16.00
2022-10-28T01:41:30.445Z,16.00
2022-10-28T01:45:22.842Z,15.90
2022-10-28T01:53:41.956Z,15.90
2022-10-28T01:57:25.539Z,15.80
2022-10-28T02:01:09.908Z,15.80
2022-10-28T02:04:51.789Z,15.70
2022-10-28T02:08:52.914Z,15.70
2022-10-28T02:12:37.610Z,15.70
2022-10-28T02:16:44.272Z,15.60
2022-10-28T02:20:26.177Z,15.60
2022-10-28T02:24:24.320Z,15.60
2022-10-28T02:28:29.002Z,15.60
2022-10-28T02:32:16.717Z,15.60
2022-10-28T02:36:05.277Z,15.60
2022-10-28T02:39:51.604Z,15.60
2022-10-28T02:43:35.430Z,15.60
2022-10-28T02:47:21.943Z,15.60
2022-10-28T02:51:18.379Z,15.60
2022-10-28T02:55:04.519Z,15.50
2022-10-28T02:58:47.292Z,15.50
2022-10-28T03:02:29.314Z,15.50
2022-10-28T03:06:11.246Z,15.60
2022-10-28T03:09:53.035Z,15.60
2022-10-28T03:13:34.777Z,15.70
2022-10-28T03:17:16.685Z,15.70
2022-10-28T03:20:59.193Z,15.70
2022-10-28T03:24:41.081Z,15.70
2022-10-28T03:28:22.779Z,15.70
2022-10-28T03:32:04.873Z,15.80
2022-10-28T03:35:46.646Z,15.80
2022-10-28T03:39:28.376Z,15.90
2022-10-28T03:43:11.486Z,16.00
2022-10-28T03:46:53.225Z,16.00
2022-10-28T03:50:35.099Z,16.00
2022-10-28T03:54:16.854Z,16.10
2022-10-28T03:58:01.270Z,16.20
2022-10-28T04:01:43.160Z,16.20
2022-10-28T04:05:24.908Z,16.30
2022-10-28T04:09:06.809Z,16.30
2022-10-28T04:12:48.577Z,16.20
2022-10-28T04:16:30.321Z,16.20
2022-10-28T04:20:12.245Z,16.20
2022-10-28T04:23:53.970Z,16.20
2022-10-28T04:27:35.808Z,16.20
2022-10-28T04:31:17.581Z,16.20
2022-10-28T04:34:59.275Z,16.20
2022-10-28T04:38:40.962Z,16.30
2022-10-28T04:42:24.074Z,16.40
2022-10-28T04:46:06.209Z,16.30
2022-10-28T04:49:48.031Z,16.10
2022-10-28T04:53:29.933Z,16.00
2022-10-28T04:57:11.718Z,16.00
2022-10-28T05:00:53.522Z,16.00
2022-10-28T05:04:35.302Z,16.00
2022-10-28T05:08:17.118Z,15.90
2022-10-28T05:11:58.851Z,15.90
2022-10-28T05:15:40.610Z,15.90
2022-10-28T05:19:23.241Z,15.90
2022-10-28T05:23:05.076Z,15.90
2022-10-28T05:26:46.851Z,15.90
2022-10-28T05:30:29.374Z,15.90
2022-10-28T05:34:12.711Z,16.00
2022-10-28T05:37:54.733Z,16.00
2022-10-28T05:41:38.853Z,16.00
2022-10-28T05:45:20.900Z,16.00
2022-10-28T05:49:02.889Z,16.10
2022-10-28T05:52:53.027Z,16.10
2022-10-28T05:56:34.777Z,16.00
2022-10-28T06:00:21.717Z,16.10
2022-10-28T06:04:05.043Z,16.20
2022-10-28T06:07:47.029Z,16.20
2022-10-28T06:11:27.422Z,16.20
2022-10-28T06:15:12.065Z,16.30
2022-10-28T06:18:53.872Z,16.30
2022-10-28T06:22:35.566Z,16.40
2022-10-28T06:26:17.273Z,16.40
2022-10-28T06:29:59.003Z,16.40
2022-10-28T06:33:40.762Z,16.30
2022-10-28T06:37:22.522Z,16.20
2022-10-28T06:41:04.312Z,16.00
2022-10-28T06:44:46.062Z,15.90
2022-10-28T06:48:29.571Z,15.80
2022-10-28T06:52:11.423Z,15.60
2022-10-28T06:55:57.474Z,15.50
2022-10-28T06:59:39.395Z,15.40
2022-10-28T07:03:21.569Z,15.20
2022-10-28T07:07:03.383Z,15.10
2022-10-28T07:10:45.118Z,14.90
2022-10-28T07:14:27.953Z,14.80
2022-10-28T07:18:09.983Z,14.70
2022-10-28T07:21:51.732Z,14.70
2022-10-28T07:25:33.635Z,14.70
2022-10-28T07:29:16.436Z,14.60
2022-10-28T07:33:01.267Z,14.60
2022-10-28T07:36:43.110Z,14.60
2022-10-28T07:40:26.190Z,14.60
2022-10-28T07:44:08.032Z,14.70
2022-10-28T07:47:50.926Z,14.70
2022-10-28T07:51:32.916Z,14.70
2022-10-28T07:55:16.059Z,14.70
2022-10-28T07:58:57.934Z,14.70
2022-10-28T08:02:39.924Z,14.70
2022-10-28T08:06:21.989Z,14.70
2022-10-28T08:10:03.969Z,14.70
2022-10-28T08:13:46.399Z,14.70
2022-10-28T08:17:28.140Z,14.70
2022-10-28T08:21:11.612Z,14.70
2022-10-28T08:24:53.460Z,14.60
2022-10-28T08:28:35.353Z,14.60
2022-10-28T08:32:18.436Z,14.60
2022-10-28T08:36:00.335Z,14.60
2022-10-28T08:39:42.342Z,14.60
2022-10-28T08:43:46.231Z,14.60
2022-10-28T08:47:59.152Z,14.50
2022-10-28T08:51:44.357Z,14.50
2022-10-28T08:55:53.961Z,14.50
2022-10-28T08:59:38.866Z,14.50
2022-10-28T09:03:25.571Z,14.60
2022-10-28T09:07:18.106Z,14.70
2022-10-28T09:11:34.984Z,14.80
2022-10-28T09:15:25.995Z,15.00
2022-10-28T09:19:44.697Z,15.40
2022-10-28T09:23:37.948Z,15.80
2022-10-28T09:27:46.151Z,16.40
2022-10-28T09:31:35.690Z,16.80
2022-10-28T09:35:22.018Z,17.10
2022-10-28T09:39:06.319Z,17.20
2022-10-28T09:43:20.769Z,17.20
2022-10-28T09:47:05.701Z,17.30
2022-10-28T09:50:51.960Z,17.50
2022-10-28T09:54:48.971Z,18.10
2022-10-28T09:58:32.620Z,18.70
2022-10-28T10:02:27.635Z,19.10
2022-10-28T10:06:20.072Z,19.50
2022-10-28T10:10:10.442Z,19.90
2022-10-28T10:13:53.804Z,20.20
2022-10-28T10:17:41.663Z,20.60
2022-10-28T10:21:45.199Z,20.90
2022-10-28T10:25:32.017Z,21.00
2022-10-28T10:29:14.213Z,21.30
2022-10-28T10:32:57.033Z,21.80
2022-10-28T10:36:49.692Z,22.20
2022-10-28T10:40:47.213Z,22.60
2022-10-28T10:44:33.710Z,23.00
2022-10-28T10:48:16.205Z,23.30
2022-10-28T10:52:04.577Z,23.60
2022-10-28T10:55:56.087Z,23.80
2022-10-28T10:59:38.386Z,24.00
2022-10-28T11:03:28.715Z,24.30
2022-10-28T11:07:16.227Z,24.40
2022-10-28T11:11:19.309Z,24.50
2022-10-28T11:15:02.572Z,24.50
2022-10-28T11:18:47.168Z,24.40
2022-10-28T11:22:47.220Z,24.20
2022-10-28T11:26:32.343Z,24.60
2022-10-28T11:30:18.440Z,25.40
2022-10-28T11:34:26.792Z,25.50
2022-10-28T11:38:17.582Z,25.80
2022-10-28T11:42:20.719Z,25.90
2022-10-28T11:46:25.485Z,25.70
2022-10-28T11:50:27.684Z,25.60
2022-10-28T11:54:36.497Z,25.50
2022-10-28T11:58:51.581Z,25.10
2022-10-28T12:02:52.301Z,25.00
2022-10-28T12:07:12.741Z,25.10
2022-10-28T12:11:00.599Z,25.30
2022-10-28T12:15:22.292Z,25.70
2022-10-28T12:19:16.901Z,26.10
2022-10-28T12:23:02.995Z,26.40
2022-10-28T12:26:50.316Z,26.50
2022-10-28T12:30:36.292Z,26.80
2022-10-28T12:34:24.091Z,26.90
2022-10-28T12:38:19.511Z,27.10
2022-10-28T12:42:22.896Z,27.00
2022-10-28T12:46:05.397Z,26.50
2022-10-28T12:50:10.543Z,25.40
2022-10-28T12:54:15.068Z,24.80
2022-10-28T12:58:15.482Z,24.20
2022-10-28T13:02:01.463Z,24.50
2022-10-28T13:05:50.618Z,24.50
2022-10-28T13:09:52.461Z,24.20
2022-10-28T13:13:58.547Z,23.60
2022-10-28T13:17:59.125Z,23.20
2022-10-28T13:22:30.013Z,23.50
2022-10-28T13:26:33.944Z,24.40
2022-10-28T13:30:21.940Z,25.40
2022-10-28T13:34:03.823Z,25.40
2022-10-28T13:37:49.124Z,24.80
2022-10-28T13:41:34.121Z,24.30
2022-10-28T13:45:48.549Z,24.30
2022-10-28T13:49:34.727Z,23.80
2022-10-28T13:53:47.760Z,23.60
2022-10-28T13:57:35.514Z,24.20
2022-10-28T14:01:36.022Z,24.40
2022-10-28T14:05:21.311Z,24.10
2022-10-28T14:09:03.189Z,23.40
2022-10-28T14:12:49.120Z,22.70
2022-10-28T14:16:38.213Z,22.30
2022-10-28T14:20:29.485Z,22.10
2022-10-28T14:24:29.373Z,21.80
2022-10-28T14:28:32.271Z,21.40
2022-10-28T14:32:49.529Z,21.20
2022-10-28T14:36:47.325Z,21.90
2022-10-28T14:40:44.463Z,22.40
2022-10-28T14:44:37.754Z,22.50
2022-10-28T14:48:28.085Z,22.60
2022-10-28T14:52:19.972Z,22.80
2022-10-28T14:56:10.301Z,23.20
2022-10-28T14:59:52.178Z,23.30
2022-10-28T15:03:34.027Z,23.00
2022-10-28T15:07:19.052Z,22.90
2022-10-28T15:11:01.005Z,22.80
2022-10-28T15:14:53.956Z,22.90
2022-10-28T15:18:35.819Z,23.00
2022-10-28T15:22:19.747Z,22.40
2022-10-28T15:26:15.916Z,21.80
2022-10-28T15:29:57.965Z,21.20
2022-10-28T15:33:41.667Z,20.70
2022-10-28T15:37:26.904Z,20.30
2022-10-28T15:41:23.924Z,20.00
2022-10-28T15:45:06.510Z,19.60
2022-10-28T15:48:55.801Z,19.30
2022-10-28T15:52:41.542Z,19.30
2022-10-28T15:56:25.009Z,19.30
2022-10-28T16:00:20.236Z,19.40
2022-10-28T16:04:01.932Z,19.30
2022-10-28T16:07:48.015Z,19.20
2022-10-28T16:11:31.164Z,19.10
2022-10-28T16:15:14.943Z,19.00
2022-10-28T16:19:09.336Z,18.80
2022-10-28T16:22:51.858Z,18.40
2022-10-28T16:26:34.026Z,18.00
2022-10-28T16:30:16.157Z,17.50
2022-10-28T16:33:59.649Z,17.00
2022-10-28T16:37:44.663Z,16.70
2022-10-28T16:41:28.204Z,16.30
2022-10-28T16:45:18.272Z,16.10
2022-10-28T16:48:59.967Z,15.80
2022-10-28T16:52:41.668Z,15.60
2022-10-28T16:56:23.485Z,15.40
2022-10-28T17:00:06.012Z,15.30
2022-10-28T17:03:47.999Z,15.20
2022-10-28T17:07:29.742Z,15.00
2022-10-28T17:11:14.580Z,14.90
2022-10-28T17:14:56.520Z,14.80
2022-10-28T17:18:38.221Z,14.60
2022-10-28T17:22:20.088Z,14.50
2022-10-28T17:26:03.020Z,14.40
2022-10-28T17:29:45.082Z,14.30
2022-10-28T17:33:26.806Z,14.20
2022-10-28T17:37:08.671Z,14.10
2022-10-28T17:40:54.947Z,14.10
2022-10-28T17:44:36.821Z,13.90
2022-10-28T17:48:18.509Z,13.80
2022-10-28T17:52:00.573Z,13.80
2022-10-28T17:55:42.379Z,13.70
2022-10-28T17:59:24.211Z,13.60
2022-10-28T18:03:06.474Z,13.50
2022-10-28T18:06:48.151Z,13.50
2022-10-28T18:10:29.833Z,13.40
2022-10-28T18:14:11.718Z,13.40
2022-10-28T18:17:53.393Z,13.30
2022-10-28T18:21:35.532Z,13.30
2022-10-28T18:25:17.223Z,13.20
2022-10-28T18:28:59.036Z,13.20
2022-10-28T18:32:40.833Z,13.20
2022-10-28T18:36:24.184Z,13.20
2022-10-28T18:40:06.642Z,13.20
2022-10-28T18:43:52.153Z,13.10
2022-10-28T18:47:34.991Z,13.20
2022-10-28T18:51:17.209Z,13.10
2022-10-28T18:55:00.496Z,13.10
2022-10-28T18:58:42.428Z,13.20
2022-10-28T19:02:24.255Z,13.10
2022-10-28T19:06:09.037Z,13.10
2022-10-28T19:09:50.730Z,13.00
2022-10-28T19:13:34.553Z,12.90
2022-10-28T19:17:16.341Z,12.90
2022-10-28T19:21:04.144Z,12.80
2022-10-28T19:24:45.948Z,12.80
2022-10-28T19:28:28.597Z,12.70
2022-10-28T19:32:10.302Z,12.80
2022-10-28T19:35:52.089Z,12.70
2022-10-28T19:39:33.799Z,12.70
2022-10-28T19:43:15.562Z,12.70
2022-10-28T19:46:57.294Z,12.70
2022-10-28T19:50:39.048Z,12.70
2022-10-28T19:54:21.674Z,12.70
2022-10-28T19:58:04.038Z,12.70
2022-10-28T20:01:45.806Z,12.70
2022-10-28T20:05:27.616Z,12.70
2022-10-28T20:09:09.545Z,12.70
2022-10-28T20:12:52.726Z,12.70
2022-10-28T20:16:35.205Z,12.70
2022-10-28T20:20:16.893Z,12.70
2022-10-28T20:23:58.728Z,12.70
2022-10-28T20:27:40.499Z,12.70
2022-10-28T20:31:27.407Z,12.70
2022-10-28T20:35:09.589Z,12.70
2022-10-28T20:39:00.271Z,12.70
2022-10-28T20:42:42.212Z,12.70
2022-10-28T20:46:25.458Z,12.70
2022-10-28T20:50:07.814Z,12.60
2022-10-28T20:53:49.797Z,12.70
2022-10-28T20:57:32.424Z,12.60
2022-10-28T21:01:22.723Z,12.60
2022-10-28T21:05:05.352Z,12.70
2022-10-28T21:08:47.119Z,12.70
2022-10-28T21:12:28.829Z,12.70
2022-10-28T21:16:12.615Z,12.70
2022-10-28T21:19:54.421Z,12.70
2022-10-28T21:23:36.343Z,12.70
2022-10-28T21:27:18.072Z,12.60
2022-10-28T21:31:14.234Z,12.60
2022-10-28T21:34:55.941Z,12.50
2022-10-28T21:38:37.830Z,12.50
2022-10-28T21:42:19.786Z,12.60
2022-10-28T21:46:01.625Z,12.60
2022-10-28T21:49:43.356Z,12.60
2022-10-28T21:53:25.910Z,12.60
2022-10-28T21:57:07.771Z,12.60
2022-10-28T22:00:49.777Z,12.70
2022-10-28T22:04:31.580Z,12.70
2022-10-28T22:08:13.256Z,12.80
2022-10-28T22:11:55.016Z,12.90
2022-10-28T22:15:36.740Z,12.90
2022-10-28T22:19:18.548Z,12.90
2022-10-28T22:23:01.412Z,12.90
2022-10-28T22:26:43.176Z,12.90
2022-10-28T22:30:24.926Z,12.90
2022-10-28T22:34:06.727Z,12.90
2022-10-28T22:37:48.479Z,12.90
2022-10-28T22:41:32.114Z,12.80
2022-10-28T22:45:13.877Z,12.80
2022-10-28T22:48:56.279Z,12.80
2022-10-28T22:52:37.947Z,12.80
2022-10-28T22:56:22.039Z,12.90
2022-10-28T23:00:04.390Z,12.80
2022-10-28T23:03:49.108Z,12.80
2022-10-28T23:07:31.005Z,12.80
2022-10-28T23:11:14.135Z,12.80
2022-10-28T23:14:55.935Z,12.80
2022-10-28T23:18:38.053Z,12.80
2022-10-28T23:22:19.767Z,12.80
2022-10-28T23:26:01.796Z,12.80
2022-10-28T23:29:43.477Z,12.80
2022-10-28T23:33:25.305Z,12.80
2022-10-28T23:37:07.065Z,12.80
2022-10-28T23:41:03.285Z,12.80
2022-10-28T23:44:45.067Z,12.80
2022-10-28T23:48:28.294Z,12.70
2022-10-28T23:52:10.001Z,12.60
2022-10-28T23:55:51.914Z,12.60
2022-10-28T23:59:33.593Z,12.50
